Terminal Aerodrome Forecast
Issued by NWS

Home | Current Version | Previous Version | Graphics & Text | Print | Product List | Glossary Off
Versions: 1 2 3 4 5 6 7 8 9 10 11 12 13 14 15 16 17 18 19 20 21 22

000
FTUS43 KDDC 032320
TAFGCK
TAF
KGCK 032320Z 0400/0424 VRB05KT 5SM BR VCSH OVC004
     FM040300 VRB05KT 2SM BR BKN003
     FM040800 28006KT P6SM SCT010
     FM041100 31010KT P6SM FEW120=

USA.gov is the U.S. government's official web portal to all federal, state and local government web resources and services.